Time;durP1;ratioP1;P1;durP2;ratioP2;P2;SDS_P1;SDS_P2;PMS_P1;PMS_P2;Temp;Humidity;BMP_temperature;BMP_pressure;BME280_temperature;BME280_humidity;BME280_pressure;Samples;Min_cycle;Max_cycle;Signal;HPM_P1;HPM_P2
2023/05/07 00:00:09;;;;;;;17.10;7.70;;;;;;;4.96;77.50;100824.61;105748;1254;70652;-71
2023/05/07 00:03:20;;;;;;;13.30;5.70;;;;;;;4.94;77.27;100824.13;105915;1257;68049;-73
2023/05/07 00:06:08;;;;;;;11.00;5.40;;;;;;;4.94;77.36;100824.30;105904;1254;72487;-72
2023/05/07 00:08:57;;;;;;;14.20;6.50;;;;;;;4.96;77.12;100828.83;105757;1254;59266;-73
2023/05/07 00:11:48;;;;;;;12.80;5.40;;;;;;;4.95;76.80;100825.50;105814;1254;60267;-71
2023/05/07 00:14:36;;;;;;;14.30;5.10;;;;;;;4.92;76.36;100829.88;105741;1259;72039;-72
2023/05/07 00:17:25;;;;;;;11.40;5.10;;;;;;;4.88;76.01;100829.49;105975;1256;67878;-72
2023/05/07 00:20:13;;;;;;;14.50;5.30;;;;;;;4.88;75.43;100823.34;102591;1258;1016060;-70
2023/05/07 00:23:02;;;;;;;12.30;4.50;;;;;;;4.85;75.33;100826.27;105455;1265;59408;-71
2023/05/07 00:25:50;;;;;;;11.10;4.40;;;;;;;4.82;74.96;100827.85;105408;1261;59243;-71
2023/05/07 00:28:39;;;;;;;10.10;4.80;;;;;;;4.77;74.71;100824.85;105764;1257;71210;-71
2023/05/07 00:31:27;;;;;;;14.70;4.50;;;;;;;4.75;74.60;100826.70;105373;1257;66331;-70
2023/05/07 00:34:15;;;;;;;15.50;5.60;;;;;;;4.72;74.06;100826.66;105395;1263;72790;-71
2023/05/07 00:37:03;;;;;;;12.50;5.20;;;;;;;4.70;73.92;100834.66;105432;1259;59842;-71
2023/05/07 00:39:53;;;;;;;14.00;4.60;;;;;;;4.66;73.73;100832.17;105431;1258;61323;-71
2023/05/07 00:42:41;;;;;;;11.50;5.00;;;;;;;4.63;73.76;100830.89;105343;1261;72292;-70
2023/05/07 00:45:30;;;;;;;11.20;5.00;;;;;;;4.61;73.75;100834.48;105327;1262;66590;-71
2023/05/07 00:48:18;;;;;;;13.00;5.00;;;;;;;4.60;73.77;100834.48;105436;1257;72434;-72
2023/05/07 00:51:07;;;;;;;12.60;4.80;;;;;;;4.59;73.53;100834.58;105623;1260;59308;-71
2023/05/07 00:53:55;;;;;;;12.10;4.80;;;;;;;4.55;73.82;100835.95;105669;1256;60109;-70
2023/05/07 00:56:42;;;;;;;10.40;4.20;;;;;;;4.53;74.18;100837.61;105590;1257;72009;-72
2023/05/07 00:59:32;;;;;;;8.90;4.00;;;;;;;4.52;74.21;100839.74;105582;1254;66726;-71
2023/05/07 01:02:20;;;;;;;11.40;4.80;;;;;;;4.52;73.93;100842.92;105640;1254;71512;-70
2023/05/07 01:05:14;;;;;;;12.30;4.80;;;;;;;4.51;73.78;100844.56;105649;1261;59272;-71
2023/05/07 01:08:04;;;;;;;10.70;4.70;;;;;;;4.47;73.75;100849.11;105499;1257;59240;-70
2023/05/07 01:10:55;;;;;;;10.10;3.70;;;;;;;4.41;73.69;100846.70;105564;1256;71981;-71
2023/05/07 01:13:44;;;;;;;11.60;4.30;;;;;;;4.35;73.80;100853.58;105739;1254;66826;-71
2023/05/07 01:16:33;;;;;;;11.30;4.40;;;;;;;4.30;73.97;100850.80;105592;1254;72686;-71
2023/05/07 01:19:22;;;;;;;11.70;5.00;;;;;;;4.27;74.00;100849.70;105586;1255;59358;-69
2023/05/07 01:22:11;;;;;;;12.40;4.40;;;;;;;4.25;74.02;100852.91;105687;1254;60101;-70
2023/05/07 01:25:08;;;;;;;9.90;4.30;;;;;;;4.24;74.04;100857.71;107244;1256;72176;-71
2023/05/07 01:28:00;;;;;;;15.30;4.80;;;;;;;4.22;74.59;100857.98;106618;1254;1003385;-72
2023/05/07 01:30:58;;;;;;;12.20;4.90;;;;;;;4.19;74.74;100858.96;107400;1256;71742;-70
2023/05/07 01:33:49;;;;;;;10.70;4.70;;;;;;;4.15;74.96;100859.98;105855;1256;59772;-70
2023/05/07 01:36:39;;;;;;;12.70;4.60;;;;;;;4.11;75.11;100862.25;106001;1261;59397;-72
2023/05/07 01:39:29;;;;;;;9.20;4.00;;;;;;;4.05;75.37;100861.60;105869;1254;72418;-69
2023/05/07 01:42:18;;;;;;;9.60;4.60;;;;;;;3.99;75.65;100859.03;105743;1258;67639;-71
2023/05/07 01:45:07;;;;;;;11.70;4.80;;;;;;;3.93;76.02;100861.02;105768;1254;72774;-70
2023/05/07 01:47:57;;;;;;;10.90;4.90;;;;;;;3.85;76.37;100860.05;105739;1261;59250;-72
2023/05/07 01:50:47;;;;;;;12.70;4.30;;;;;;;3.78;76.70;100865.41;105698;1254;59328;-74
2023/05/07 01:53:40;;;;;;;13.90;5.00;;;;;;;3.71;77.27;100866.38;105590;1254;72358;-71
2023/05/07 01:56:29;;;;;;;10.10;4.30;;;;;;;3.65;77.55;100868.52;105635;1259;66641;-72
2023/05/07 01:59:17;;;;;;;10.00;4.40;;;;;;;3.59;77.80;100867.32;105540;1256;71351;-70
2023/05/07 02:02:05;;;;;;;11.10;4.40;;;;;;;3.55;78.01;100867.83;105556;1260;59243;-70
2023/05/07 02:04:53;;;;;;;14.90;4.50;;;;;;;3.52;78.46;100868.46;105670;1254;61110;-71
2023/05/07 02:07:42;;;;;;;11.20;4.50;;;;;;;3.49;78.84;100868.39;105773;1254;70657;-71
2023/05/07 02:10:31;;;;;;;12.00;4.30;;;;;;;3.47;79.17;100866.73;105729;1257;66806;-71
2023/05/07 02:13:21;;;;;;;11.30;4.50;;;;;;;3.43;79.50;100867.90;105549;1256;72389;-71
2023/05/07 02:16:10;;;;;;;12.90;4.80;;;;;;;3.39;79.68;100865.75;105961;1259;59324;-71
2023/05/07 02:18:59;;;;;;;14.20;5.00;;;;;;;3.33;79.75;100869.98;105694;1259;59199;-70
2023/05/07 02:21:48;;;;;;;12.90;5.10;;;;;;;3.29;79.87;100875.05;106023;1255;71993;-71
2023/05/07 02:24:35;;;;;;;12.40;5.00;;;;;;;3.22;80.01;100878.09;105707;1254;66745;-72
2023/05/07 02:27:24;;;;;;;11.30;4.60;;;;;;;3.18;80.37;100882.09;105608;1255;71498;-71
2023/05/07 02:30:13;;;;;;;12.70;4.70;;;;;;;3.14;80.42;100885.54;105907;1262;59218;-71
2023/05/07 02:33:01;;;;;;;12.60;4.80;;;;;;;3.11;80.35;100887.94;105688;1259;59359;-71
2023/05/07 02:35:49;;;;;;;11.80;4.40;;;;;;;3.06;80.46;100886.52;105655;1254;72282;-72
2023/05/07 02:38:37;;;;;;;11.50;5.20;;;;;;;3.01;80.51;100890.70;105669;1259;67768;-71
2023/05/07 02:41:27;;;;;;;11.70;4.30;;;;;;;2.95;80.56;100891.79;105600;1260;72612;-72
2023/05/07 02:44:16;;;;;;;11.70;4.60;;;;;;;2.88;80.69;100896.38;104899;1254;1003534;-71
2023/05/07 02:47:08;;;;;;;10.80;4.90;;;;;;;2.82;80.74;100892.57;105660;1256;59292;-73
2023/05/07 02:49:57;;;;;;;12.00;5.10;;;;;;;2.73;80.74;100894.77;105770;1256;70944;-72
2023/05/07 02:52:45;;;;;;;11.30;4.70;;;;;;;2.65;81.32;100895.71;105868;1257;66478;-71
2023/05/07 02:55:33;;;;;;;15.60;5.10;;;;;;;2.60;81.93;100897.27;105694;1258;72916;-71
2023/05/07 02:58:23;;;;;;;14.40;4.50;;;;;;;2.56;81.92;100894.79;105962;1259;59837;-70
2023/05/07 03:01:11;;;;;;;12.30;4.60;;;;;;;2.51;82.02;100894.40;105795;1258;60507;-71
2023/05/07 03:04:07;;;;;;;10.10;4.20;;;;;;;2.46;82.24;100893.84;105807;1256;72125;-71
2023/05/07 03:06:55;;;;;;;12.10;5.00;;;;;;;2.43;82.47;100893.60;105706;1257;68011;-71
2023/05/07 03:09:43;;;;;;;11.30;4.70;;;;;;;2.40;82.74;100899.31;105512;1256;72667;-71
2023/05/07 03:12:31;;;;;;;9.80;4.60;;;;;;;2.36;82.77;100898.20;105985;1254;59234;-71
2023/05/07 03:15:19;;;;;;;10.20;4.60;;;;;;;2.32;82.94;100899.55;105492;1256;59663;-71
2023/05/07 03:18:07;;;;;;;10.60;4.90;;;;;;;2.30;83.08;100902.23;105600;1255;70914;-71
2023/05/07 03:20:55;;;;;;;11.40;4.70;;;;;;;2.28;83.15;100903.35;105768;1259;67775;-72
2023/05/07 03:23:44;;;;;;;14.20;5.00;;;;;;;2.27;83.44;100909.33;105918;1257;73316;-70
2023/05/07 03:26:32;;;;;;;12.50;4.80;;;;;;;2.29;83.59;100909.28;105722;1255;59316;-70
2023/05/07 03:29:20;;;;;;;12.40;4.70;;;;;;;2.31;83.79;100909.89;105670;1254;60172;-70
2023/05/07 03:32:08;;;;;;;10.90;4.60;;;;;;;2.34;83.90;100908.77;105895;1256;70599;-71
2023/05/07 03:34:56;;;;;;;10.80;4.50;;;;;;;2.36;83.86;100916.05;105579;1259;68099;-71
2023/05/07 03:37:45;;;;;;;11.60;4.60;;;;;;;2.38;83.92;100915.81;105542;1257;72827;-69
2023/05/07 03:40:34;;;;;;;11.50;4.70;;;;;;;2.40;83.91;100916.30;106544;1259;59146;-71
2023/05/07 03:43:23;;;;;;;11.90;4.80;;;;;;;2.41;83.82;100918.52;106207;1256;59301;-70
2023/05/07 03:46:18;;;;;;;14.40;4.80;;;;;;;2.43;83.62;100919.02;106011;1254;72302;-71
2023/05/07 03:49:06;;;;;;;12.90;4.70;;;;;;;2.46;83.83;100920.84;105852;1256;67926;-69
2023/05/07 03:51:55;;;;;;;10.60;4.60;;;;;;;2.49;83.66;100925.83;105810;1259;72411;-71
2023/05/07 03:54:43;;;;;;;10.90;5.00;;;;;;;2.53;83.69;100921.66;105809;1256;59291;-71
2023/05/07 03:57:32;;;;;;;12.30;4.30;;;;;;;2.57;83.46;100926.45;105143;1254;1003521;-71
2023/05/07 04:00:20;;;;;;;9.80;4.30;;;;;;;2.53;83.47;100915.04;105780;1255;71750;-70
2023/05/07 04:03:08;;;;;;;13.50;5.00;;;;;;;2.67;83.24;100933.33;106266;1256;67227;-72
2023/05/07 04:05:57;;;;;;;12.20;4.60;;;;;;;2.69;83.33;100937.12;106226;1259;71103;-72
2023/05/07 04:08:46;;;;;;;12.70;4.90;;;;;;;2.74;83.38;100937.14;106769;1254;59332;-71
2023/05/07 04:11:36;;;;;;;11.40;4.40;;;;;;;2.80;83.41;100938.54;106500;1257;59182;-71
2023/05/07 04:14:25;;;;;;;10.60;4.60;;;;;;;2.87;83.67;100936.20;106737;1256;72080;-71
2023/05/07 04:17:14;;;;;;;10.00;4.30;;;;;;;2.98;83.84;100934.30;105845;1258;67646;-72
2023/05/07 04:20:02;;;;;;;11.30;4.80;;;;;;;3.09;83.73;100935.17;105867;1259;72713;-70
2023/05/07 04:22:51;;;;;;;12.20;4.50;;;;;;;3.20;83.76;100933.77;105655;1257;59125;-71
2023/05/07 04:25:39;;;;;;;10.60;4.20;;;;;;;3.31;83.57;100940.75;105922;1254;59286;-71
2023/05/07 04:28:42;;;;;;;9.60;4.40;;;;;;;3.46;83.50;100948.32;106171;1254;72306;-72
2023/05/07 04:31:31;;;;;;;10.80;4.50;;;;;;;3.58;83.04;100953.87;105899;1259;67919;-72
2023/05/07 04:34:21;;;;;;;12.30;5.10;;;;;;;3.71;82.84;100953.59;105759;1254;72599;-73
2023/05/07 04:37:09;;;;;;;12.50;4.40;;;;;;;3.84;82.50;100957.73;105725;1255;59326;-71
2023/05/07 04:40:00;;;;;;;12.20;4.40;;;;;;;3.97;82.21;100956.20;105827;1256;60127;-70
2023/05/07 04:42:49;;;;;;;9.90;4.40;;;;;;;4.12;81.94;100954.98;105747;1259;71990;-73
2023/05/07 04:45:39;;;;;;;11.10;4.10;;;;;;;4.26;81.36;100962.52;105668;1256;66645;-70
2023/05/07 04:48:28;;;;;;;10.80;4.80;;;;;;;4.44;80.87;100958.17;105631;1257;72800;-70
2023/05/07 04:51:18;;;;;;;9.20;4.00;;;;;;;4.63;80.20;100962.90;105957;1257;60063;-71
2023/05/07 04:54:06;;;;;;;8.40;3.40;;;;;;;4.80;79.67;100967.14;105815;1257;59453;-71
2023/05/07 04:56:54;;;;;;;7.90;3.30;;;;;;;4.98;78.63;100971.19;105873;1255;72368;-72
2023/05/07 04:59:42;;;;;;;12.70;4.50;;;;;;;5.17;78.12;100966.05;104982;1256;1003707;-72
2023/05/07 05:02:30;;;;;;;9.30;3.30;;;;;;;5.38;76.94;100969.95;105848;1254;73353;-70
2023/05/07 05:05:19;;;;;;;8.20;3.20;;;;;;;5.60;75.73;100967.42;105718;1256;59354;-71
2023/05/07 05:08:07;;;;;;;8.60;3.50;;;;;;;5.96;74.57;100964.13;105609;1261;59330;-71
2023/05/07 05:10:57;;;;;;;8.40;2.70;;;;;;;6.74;72.65;100959.37;105636;1255;72294;-73
2023/05/07 05:13:48;;;;;;;8.80;3.50;;;;;;;8.07;68.18;100960.35;105604;1257;66444;-71
2023/05/07 05:16:39;;;;;;;9.40;3.40;;;;;;;9.77;65.50;100957.88;105811;1257;72744;-74
2023/05/07 05:19:27;;;;;;;9.70;3.80;;;;;;;11.56;59.73;100953.80;105650;1256;59632;-71
2023/05/07 05:22:15;;;;;;;9.10;3.50;;;;;;;13.24;52.86;100957.14;105575;1256;59272;-74
2023/05/07 05:25:05;;;;;;;9.80;3.20;;;;;;;14.81;49.49;100945.84;105887;1254;72389;-74
2023/05/07 05:27:53;;;;;;;9.60;3.30;;;;;;;16.04;42.36;100948.67;105698;1256;66619;-73
2023/05/07 05:30:41;;;;;;;9.90;3.30;;;;;;;17.07;41.42;100947.29;105956;1255;73395;-73
2023/05/07 05:33:30;;;;;;;9.20;2.90;;;;;;;18.13;38.49;100950.52;105699;1260;59182;-72
2023/05/07 05:36:22;;;;;;;10.90;3.10;;;;;;;19.07;35.53;100944.46;105956;1259;59574;-72
2023/05/07 05:39:10;;;;;;;8.50;3.30;;;;;;;19.92;34.77;100947.83;105893;1259;72020;-73
2023/05/07 05:41:58;;;;;;;7.80;2.80;;;;;;;20.78;32.68;100949.61;105786;1255;66399;-76
2023/05/07 05:44:46;;;;;;;6.70;2.70;;;;;;;21.49;30.88;100951.41;105966;1255;317469;-71
2023/05/07 05:47:34;;;;;;;8.10;2.60;;;;;;;22.14;29.15;100949.38;105930;1263;59162;-72
2023/05/07 05:50:22;;;;;;;6.90;2.70;;;;;;;22.67;27.94;100945.17;105843;1257;59324;-73
2023/05/07 05:53:10;;;;;;;7.30;2.60;;;;;;;23.21;27.00;100944.90;105805;1257;72217;-73
2023/05/07 05:55:59;;;;;;;7.60;2.90;;;;;;;23.81;25.87;100949.57;106029;1257;67682;-74
2023/05/07 05:58:47;;;;;;;9.50;3.00;;;;;;;24.28;25.81;100955.92;105976;1259;72684;-75
2023/05/07 06:01:35;;;;;;;7.20;2.80;;;;;;;24.63;24.71;100954.38;106244;1265;59205;-74
2023/05/07 06:04:24;;;;;;;7.50;2.80;;;;;;;24.90;24.50;100951.64;105914;1260;60086;-76
2023/05/07 06:07:13;;;;;;;8.10;3.30;;;;;;;25.17;23.46;100951.88;106074;1259;71244;-75
2023/05/07 06:10:01;;;;;;;7.60;2.60;;;;;;;25.32;23.07;100952.37;105863;1260;67905;-74
2023/05/07 06:12:50;;;;;;;7.30;2.50;;;;;;;25.49;23.04;100956.73;106090;1262;72482;-72
2023/05/07 06:15:38;;;;;;;8.30;2.30;;;;;;;25.77;22.58;100958.05;105826;1257;59217;-75
2023/05/07 06:18:29;;;;;;;9.60;3.30;;;;;;;25.95;21.90;100959.48;105835;1255;60145;-73
2023/05/07 06:21:17;;;;;;;9.00;3.40;;;;;;;26.05;21.71;100960.29;105897;1254;70831;-75
2023/05/07 06:24:06;;;;;;;7.10;2.50;;;;;;;26.14;21.67;100961.32;105756;1259;67973;-75
2023/05/07 06:26:55;;;;;;;9.50;3.50;;;;;;;26.22;21.62;100963.45;105923;1257;72440;-76
2023/05/07 06:29:43;;;;;;;8.40;2.80;;;;;;;26.30;21.20;100967.11;105562;1263;59188;-74
2023/05/07 06:32:33;;;;;;;8.30;2.50;;;;;;;26.49;20.88;100970.77;105875;1257;60020;-74
2023/05/07 06:35:22;;;;;;;8.00;2.40;;;;;;;26.69;20.43;100966.84;105918;1257;72008;-73
2023/05/07 06:38:10;;;;;;;10.50;2.80;;;;;;;26.96;19.80;100967.58;105704;1260;69209;-74
2023/05/07 06:41:00;;;;;;;6.80;2.50;;;;;;;27.10;19.34;100969.59;105771;1260;72935;-72
2023/05/07 06:43:48;;;;;;;8.50;2.80;;;;;;;27.35;19.54;100969.73;105927;1257;59248;-74
2023/05/07 06:46:57;;;;;;;7.80;2.50;;;;;;;27.50;19.19;100973.08;105903;1259;59280;-74
2023/05/07 06:49:46;;;;;;;6.50;2.40;;;;;;;27.66;18.65;100974.59;105761;1256;72031;-72
2023/05/07 06:52:37;;;;;;;8.50;2.60;;;;;;;27.70;18.23;100970.59;106099;1258;66515;-74
2023/05/07 06:55:26;;;;;;;6.90;2.60;;;;;;;27.76;18.54;100976.02;105861;1260;71160;-72
2023/05/07 06:58:15;;;;;;;8.00;2.40;;;;;;;28.00;18.27;100980.52;106004;1260;59227;-74
2023/05/07 07:01:05;;;;;;;8.00;3.40;;;;;;;28.32;17.83;100979.11;105864;1257;60288;-72
2023/05/07 07:03:56;;;;;;;8.00;2.50;;;;;;;28.46;17.82;100976.92;105907;1260;72911;-75
2023/05/07 07:06:45;;;;;;;7.90;2.30;;;;;;;28.47;17.22;100980.50;105885;1260;67927;-74
2023/05/07 07:09:33;;;;;;;6.60;2.20;;;;;;;28.48;17.21;100975.27;105830;1261;71456;-73
2023/05/07 07:12:24;;;;;;;6.50;2.30;;;;;;;28.56;16.78;100980.25;105649;1262;59126;-74
2023/05/07 07:15:16;;;;;;;7.20;2.30;;;;;;;28.67;17.07;100979.89;105717;1260;59975;-75
2023/05/07 07:18:06;;;;;;;6.30;2.10;;;;;;;28.71;16.85;100980.25;105893;1256;72102;-74
2023/05/07 07:20:55;;;;;;;6.10;2.00;;;;;;;28.63;16.14;100980.12;105732;1262;68121;-74
2023/05/07 07:23:43;;;;;;;6.70;2.00;;;;;;;28.63;16.01;100983.33;105649;1262;73157;-74
2023/05/07 07:26:32;;;;;;;7.60;2.10;;;;;;;28.73;16.15;100988.30;105687;1255;59341;-74
2023/05/07 07:29:20;;;;;;;8.40;2.60;;;;;;;28.89;16.06;100984.73;105907;1259;59272;-73
2023/05/07 07:32:08;;;;;;;6.70;2.40;;;;;;;29.10;15.88;100985.02;105642;1255;73373;-72
2023/05/07 07:34:57;;;;;;;6.90;2.50;;;;;;;29.25;15.86;100987.77;105709;1262;67939;-73
2023/05/07 07:37:47;;;;;;;6.40;2.00;;;;;;;29.30;15.97;100985.77;105732;1260;71115;-74
2023/05/07 07:40:36;;;;;;;6.50;2.10;;;;;;;29.38;16.31;100986.14;105718;1257;59316;-75
2023/05/07 07:43:24;;;;;;;7.30;2.40;;;;;;;29.23;16.16;100985.88;105650;1255;60004;-72
2023/05/07 07:46:13;;;;;;;7.50;2.30;;;;;;;28.62;15.82;100991.84;105898;1259;72340;-73
2023/05/07 07:49:03;;;;;;;7.20;2.30;;;;;;;27.88;15.92;100986.52;105769;1257;67687;-74
2023/05/07 07:51:52;;;;;;;6.50;2.10;;;;;;;27.86;15.83;100987.08;105698;1262;73331;-74
2023/05/07 07:54:42;;;;;;;6.60;2.20;;;;;;;27.91;15.71;100991.91;105688;1257;59332;-74
2023/05/07 07:57:30;;;;;;;6.10;1.90;;;;;;;27.88;15.69;100990.48;105648;1254;60062;-72
2023/05/07 08:00:19;;;;;;;7.00;1.70;;;;;;;27.69;15.72;100995.17;105712;1259;71061;-74
2023/05/07 08:03:10;;;;;;;8.90;1.70;;;;;;;27.91;16.26;100993.46;105727;1261;66350;-75
2023/05/07 08:06:02;;;;;;;6.90;1.90;;;;;;;28.24;15.74;100990.50;105765;1257;72652;-72
2023/05/07 08:08:52;;;;;;;8.50;1.80;;;;;;;27.74;15.29;100991.29;105986;1254;59333;-74
2023/05/07 08:11:41;;;;;;;7.30;2.00;;;;;;;27.61;15.30;100996.80;106031;1259;60517;-74
2023/05/07 08:14:29;;;;;;;9.30;2.00;;;;;;;27.23;15.27;100996.98;105862;1259;70910;-73
2023/05/07 08:17:17;;;;;;;8.00;2.90;;;;;;;27.03;15.72;101002.68;105785;1260;67909;-73
2023/05/07 08:20:07;;;;;;;6.10;2.00;;;;;;;27.16;16.46;100996.53;105845;1259;72388;-73
2023/05/07 08:22:56;;;;;;;8.30;3.30;;;;;;;27.28;15.96;100999.50;105876;1260;59293;-73
2023/05/07 08:25:44;;;;;;;6.20;1.80;;;;;;;27.73;15.91;100997.84;105786;1255;60128;-74
2023/05/07 08:28:33;;;;;;;7.00;2.10;;;;;;;27.98;15.24;100994.40;106173;1254;72552;-72
2023/05/07 08:31:21;;;;;;;6.30;1.80;;;;;;;27.85;15.52;100991.42;105823;1254;66817;-73
2023/05/07 08:34:09;;;;;;;6.10;1.90;;;;;;;27.69;14.80;100995.88;105657;1263;72751;-71
2023/05/07 08:37:00;;;;;;;7.10;2.10;;;;;;;27.96;15.42;100999.73;105985;1260;59235;-74
2023/05/07 08:39:49;;;;;;;6.40;1.90;;;;;;;28.21;15.51;100999.63;105795;1254;59192;-74
2023/05/07 08:42:42;;;;;;;5.80;2.00;;;;;;;28.54;15.04;100999.30;105910;1257;71409;-74
2023/05/07 08:45:33;;;;;;;7.00;2.20;;;;;;;28.70;14.45;101001.80;105840;1260;67648;-72
2023/05/07 08:48:26;;;;;;;7.60;2.00;;;;;;;28.82;14.30;101001.02;105807;1260;73178;-75
2023/05/07 08:51:21;;;;;;;6.40;1.70;;;;;;;28.44;14.17;101001.13;105704;1262;59331;-74
2023/05/07 08:54:11;;;;;;;5.90;1.80;;;;;;;28.35;13.86;101009.59;105569;1257;60145;-74
2023/05/07 08:56:59;;;;;;;8.20;2.10;;;;;;;28.35;13.79;101009.03;105818;1263;70682;-75
2023/05/07 08:59:48;;;;;;;5.80;1.90;;;;;;;27.94;14.10;101009.69;105599;1259;67894;-70
2023/05/07 09:02:38;;;;;;;8.40;2.10;;;;;;;27.86;14.56;101011.35;105563;1258;71139;-71
2023/05/07 09:05:26;;;;;;;7.00;2.00;;;;;;;27.95;14.53;101009.34;105520;1259;59237;-71
2023/05/07 09:08:16;;;;;;;6.70;2.00;;;;;;;27.87;14.27;101014.14;105609;1260;59439;-74
2023/05/07 09:11:07;;;;;;;7.00;2.10;;;;;;;27.86;14.16;101014.85;105394;1260;72092;-73
2023/05/07 09:13:59;;;;;;;7.90;2.00;;;;;;;28.10;14.36;101009.74;105528;1263;67904;-75
2023/05/07 09:16:47;;;;;;;6.60;2.00;;;;;;;28.08;15.37;101008.33;105565;1266;71889;-72
2023/05/07 09:19:37;;;;;;;7.30;2.10;;;;;;;28.10;14.95;101012.48;105410;1257;59181;-74
2023/05/07 09:22:25;;;;;;;6.80;1.80;;;;;;;28.35;14.35;101012.11;105501;1263;60542;-74
2023/05/07 09:25:31;;;;;;;5.80;2.00;;;;;;;28.53;14.12;101014.08;105665;1260;72316;-73
2023/05/07 09:28:23;;;;;;;6.50;2.00;;;;;;;28.43;14.29;101012.70;105667;1260;67629;-72
2023/05/07 09:31:12;;;;;;;6.10;1.70;;;;;;;28.58;14.23;101008.55;105791;1254;72721;-71
2023/05/07 09:34:01;;;;;;;7.80;2.20;;;;;;;28.73;14.49;101017.54;105820;1260;59586;-72
2023/05/07 09:36:53;;;;;;;6.30;2.40;;;;;;;28.68;14.19;101016.82;106538;1254;60039;-71
2023/05/07 09:39:47;;;;;;;5.70;2.10;;;;;;;28.61;14.50;101017.93;106764;1260;71005;-72
2023/05/07 09:42:38;;;;;;;5.90;2.10;;;;;;;28.64;15.08;101015.74;106038;1255;67967;-71
2023/05/07 09:45:28;;;;;;;7.60;2.00;;;;;;;28.60;14.25;101020.80;105900;1260;72386;-73
2023/05/07 09:48:19;;;;;;;7.40;2.00;;;;;;;28.38;14.18;101020.02;105885;1260;59282;-73
2023/05/07 09:51:41;;;;;;;6.60;2.20;;;;;;;28.32;14.40;101012.70;106259;1255;60321;-74
2023/05/07 09:54:30;;;;;;;5.90;2.00;;;;;;;28.03;14.30;101013.71;105773;1259;73453;-73
2023/05/07 09:57:21;;;;;;;5.90;2.20;;;;;;;27.91;14.05;101018.80;105592;1268;67925;-72
2023/05/07 10:00:15;;;;;;;5.80;1.90;;;;;;;27.99;14.60;101017.38;105834;1260;72755;-76
2023/05/07 10:03:09;;;;;;;7.30;2.10;;;;;;;27.94;14.64;101014.21;105903;1260;59119;-72
2023/05/07 10:06:06;;;;;;;6.50;2.40;;;;;;;28.06;15.02;101017.41;105643;1263;59256;-73
2023/05/07 10:08:56;;;;;;;6.90;1.60;;;;;;;28.08;15.05;101016.71;105721;1262;72536;-73
2023/05/07 10:11:46;;;;;;;7.50;2.00;;;;;;;28.13;14.64;101016.66;105680;1262;67716;-75
2023/05/07 10:14:35;;;;;;;6.70;2.10;;;;;;;28.01;14.21;101018.91;105719;1260;71630;-73
2023/05/07 10:17:23;;;;;;;6.80;2.00;;;;;;;27.61;14.26;101019.24;105769;1254;59217;-73
2023/05/07 10:20:13;;;;;;;7.00;2.30;;;;;;;27.38;13.58;101022.00;105709;1260;59317;-73
2023/05/07 10:23:05;;;;;;;8.10;2.40;;;;;;;27.06;14.08;101022.81;105606;1254;72306;-73
2023/05/07 10:26:00;;;;;;;7.50;2.00;;;;;;;27.05;14.68;101023.77;105566;1255;66595;-71
2023/05/07 10:28:58;;;;;;;6.30;2.20;;;;;;;26.92;14.57;101025.55;105869;1254;72347;-72
2023/05/07 10:32:22;;;;;;;5.80;2.10;;;;;;;26.91;14.47;101025.36;106099;1264;59170;-72
2023/05/07 10:35:27;;;;;;;6.70;2.10;;;;;;;27.06;14.43;101017.65;105222;1274;59315;-73
2023/05/07 10:38:16;;;;;;;6.80;2.00;;;;;;;26.97;14.30;101022.79;105139;1270;70727;-72
2023/05/07 10:41:05;;;;;;;6.30;2.10;;;;;;;26.78;14.15;101025.88;105169;1269;67916;-73
2023/05/07 10:43:56;;;;;;;6.70;2.20;;;;;;;26.62;14.90;101022.40;105050;1273;72753;-72
2023/05/07 10:47:09;;;;;;;7.60;2.10;;;;;;;26.69;14.48;101023.67;105140;1270;59265;-75
2023/05/07 10:50:05;;;;;;;6.40;1.70;;;;;;;26.64;14.69;101016.66;105175;1270;59311;-72
2023/05/07 10:53:18;;;;;;;7.30;2.00;;;;;;;26.93;14.84;101015.34;105112;1269;72198;-74
2023/05/07 10:56:20;;;;;;;5.90;2.00;;;;;;;27.42;14.89;101017.80;105905;1270;68749;-73
2023/05/07 10:59:26;;;;;;;7.70;2.10;;;;;;;27.59;14.37;101016.27;105505;1265;73855;-75
2023/05/07 11:02:17;;;;;;;6.50;2.20;;;;;;;27.99;14.37;101012.88;105499;1267;59363;-75
2023/05/07 11:05:22;;;;;;;6.70;1.80;;;;;;;28.36;14.26;101007.73;105308;1266;60098;-75
2023/05/07 11:08:52;;;;;;;9.30;1.90;;;;;;;28.29;13.72;101015.66;105223;1267;70690;-75
2023/05/07 11:11:51;;;;;;;6.00;1.80;;;;;;;28.29;13.98;101016.24;105414;1269;66412;-74
2023/05/07 11:15:15;;;;;;;7.20;1.80;;;;;;;27.51;14.51;101010.73;106024;1261;73453;-77
2023/05/07 11:18:05;;;;;;;6.40;2.00;;;;;;;26.84;15.35;101022.27;105623;1257;59205;-74
2023/05/07 11:20:59;;;;;;;6.40;2.00;;;;;;;26.27;15.75;101021.96;105696;1257;60063;-74
2023/05/07 11:23:53;;;;;;;5.50;1.70;;;;;;;25.59;16.51;101019.59;105624;1260;71077;-70
2023/05/07 11:26:49;;;;;;;6.10;1.80;;;;;;;25.10;16.12;101024.75;106038;1261;69273;-76
2023/05/07 11:29:46;;;;;;;5.90;2.10;;;;;;;24.59;17.20;101024.85;106012;1254;72792;-73
2023/05/07 11:32:34;;;;;;;5.90;2.00;;;;;;;24.14;17.41;101024.16;105805;1254;59353;-74
2023/05/07 11:35:26;;;;;;;6.70;2.20;;;;;;;23.79;17.83;101025.92;105745;1257;60267;-73
2023/05/07 11:38:19;;;;;;;8.30;2.10;;;;;;;23.27;18.31;101026.23;105795;1260;72362;-76
2023/05/07 11:41:08;;;;;;;8.10;2.10;;;;;;;22.85;19.47;101034.68;105782;1258;66639;-72
2023/05/07 11:43:59;;;;;;;8.00;2.20;;;;;;;22.55;20.09;101041.13;105779;1256;72535;-75
2023/05/07 11:46:51;;;;;;;7.90;2.50;;;;;;;21.93;20.14;101043.47;105665;1264;59320;-74
2023/05/07 11:49:40;;;;;;;6.10;1.90;;;;;;;21.29;20.22;101033.89;105717;1266;60212;-73
2023/05/07 11:52:30;;;;;;;6.80;2.10;;;;;;;20.66;21.03;101040.26;105886;1260;72202;-75
2023/05/07 11:55:19;;;;;;;6.40;2.20;;;;;;;20.05;21.39;101040.45;105731;1257;67840;-68
2023/05/07 11:58:12;;;;;;;6.00;2.10;;;;;;;19.42;22.67;101037.59;106328;1258;72802;-68
2023/05/07 12:01:00;;;;;;;7.60;2.70;;;;;;;18.89;22.79;101035.56;105524;1261;59210;-68
2023/05/07 12:03:48;;;;;;;7.60;2.50;;;;;;;18.56;23.80;101043.44;105272;1257;60168;-67
2023/05/07 12:06:39;;;;;;;6.20;2.00;;;;;;;18.19;23.51;101046.42;105725;1260;72801;-68
2023/05/07 12:09:27;;;;;;;6.60;2.10;;;;;;;17.84;25.02;101045.33;107910;1257;66590;-67
2023/05/07 12:12:18;;;;;;;7.00;2.60;;;;;;;17.69;25.19;101045.27;105796;1260;72633;-66
2023/05/07 12:15:07;;;;;;;7.50;2.50;;;;;;;17.40;24.57;101040.98;105403;1260;59273;-65
2023/05/07 12:17:56;;;;;;;7.00;2.30;;;;;;;17.00;25.27;101047.41;105584;1260;59238;-67
2023/05/07 12:20:45;;;;;;;7.90;2.70;;;;;;;16.78;27.06;101048.00;106061;1258;70971;-66
2023/05/07 12:23:38;;;;;;;7.80;2.50;;;;;;;16.68;28.14;101047.13;105644;1261;68546;-67
2023/05/07 12:26:26;;;;;;;8.30;2.70;;;;;;;16.54;27.41;101046.92;105001;1258;1003157;-66
2023/05/07 12:29:15;;;;;;;7.40;2.60;;;;;;;16.37;28.10;101055.17;105937;1260;59764;-67
2023/05/07 12:32:06;;;;;;;11.00;3.10;;;;;;;16.37;28.40;101049.46;105782;1257;61877;-66
2023/05/07 12:34:58;;;;;;;6.90;2.50;;;;;;;16.37;28.12;101051.23;105681;1254;72873;-66
2023/05/07 12:37:58;;;;;;;7.00;2.40;;;;;;;16.30;27.04;101049.91;105406;1256;67113;-65
2023/05/07 12:40:54;;;;;;;6.80;2.30;;;;;;;16.24;26.36;101052.94;105637;1261;73693;-67
2023/05/07 12:43:46;;;;;;;8.00;2.30;;;;;;;16.15;27.25;101054.57;105686;1260;59234;-66
2023/05/07 12:46:39;;;;;;;8.00;2.40;;;;;;;16.00;28.04;101059.07;105556;1261;59556;-68
2023/05/07 12:49:28;;;;;;;9.00;2.90;;;;;;;15.83;27.92;101061.35;105523;1254;72686;-66
2023/05/07 12:52:17;;;;;;;6.80;2.50;;;;;;;15.74;28.30;101061.44;105630;1259;68554;-65
2023/05/07 12:55:07;;;;;;;8.40;2.30;;;;;;;15.74;28.60;101059.45;105320;1257;71385;-67
2023/05/07 12:57:58;;;;;;;8.30;2.40;;;;;;;15.70;28.35;101064.48;105329;1263;59770;-68
2023/05/07 13:00:51;;;;;;;8.90;2.20;;;;;;;15.60;28.15;101062.55;105419;1263;59632;-67
2023/05/07 13:03:39;;;;;;;7.20;2.50;;;;;;;15.47;27.57;101062.01;105479;1257;72901;-67